createdAt,value
2018-04-30T00:00:36.453Z,21.63
2018-04-30T00:03:04.871Z,22.97
2018-04-30T00:05:35.023Z,22.60
2018-04-30T00:08:03.749Z,21.60
2018-04-30T00:10:32.431Z,22.47
2018-04-30T00:13:01.773Z,21.97
2018-04-30T00:15:31.201Z,24.33
2018-04-30T00:17:59.615Z,23.90
2018-04-30T00:20:28.626Z,23.80
2018-04-30T00:23:00.771Z,23.90
2018-04-30T00:25:30.100Z,24.23
2018-04-30T00:27:59.586Z,23.43
2018-04-30T00:30:28.823Z,24.70
2018-04-30T00:32:57.561Z,23.70
2018-04-30T00:35:26.602Z,24.17
2018-04-30T00:37:56.642Z,23.77
2018-04-30T00:40:25.004Z,24.07
2018-04-30T00:42:54.749Z,23.47
2018-04-30T00:45:24.058Z,24.60
2018-04-30T00:47:55.833Z,23.03
2018-04-30T00:50:26.161Z,22.27
2018-04-30T00:52:55.623Z,22.67
2018-04-30T00:55:25.117Z,22.20
2018-04-30T00:57:57.281Z,22.87
2018-04-30T01:00:26.171Z,21.63
2018-04-30T01:02:55.461Z,21.77
2018-04-30T01:05:24.883Z,21.83
2018-04-30T01:07:54.428Z,21.67
2018-04-30T01:10:23.636Z,21.33
2018-04-30T01:12:54.473Z,22.67
2018-04-30T01:15:23.978Z,22.47
2018-04-30T01:17:54.043Z,22.47
2018-04-30T01:20:23.252Z,22.07
2018-04-30T01:22:52.269Z,22.37
2018-04-30T01:25:20.711Z,21.10
2018-04-30T01:27:49.509Z,21.87
2018-04-30T01:30:20.588Z,21.50
2018-04-30T01:32:49.484Z,22.33
2018-04-30T01:35:17.968Z,20.93
2018-04-30T01:37:46.765Z,22.93
2018-04-30T01:40:17.419Z,21.37
2018-04-30T01:42:46.101Z,22.90
2018-04-30T01:45:15.753Z,22.03
2018-04-30T01:47:44.781Z,22.80
2018-04-30T01:50:13.227Z,21.13
2018-04-30T01:52:41.571Z,22.33
2018-04-30T01:55:10.028Z,23.43
2018-04-30T01:57:39.323Z,23.57
2018-04-30T02:00:07.763Z,22.80
2018-04-30T02:02:38.015Z,23.57
2018-04-30T02:05:06.613Z,22.53
2018-04-30T02:07:34.983Z,22.47
2018-04-30T02:10:03.893Z,23.10
2018-04-30T02:12:33.553Z,21.43
2018-04-30T02:15:02.884Z,22.97
2018-04-30T02:17:31.814Z,21.40
2018-04-30T02:20:01.571Z,22.33
2018-04-30T02:22:29.936Z,23.30
2018-04-30T02:24:58.915Z,23.33
2018-04-30T02:27:28.251Z,23.07
2018-04-30T02:29:56.805Z,22.10
2018-04-30T02:32:25.156Z,21.10
2018-04-30T02:34:54.557Z,22.27
2018-04-30T02:37:23.372Z,23.77
2018-04-30T02:39:52.471Z,22.03
2018-04-30T02:42:22.390Z,22.03
2018-04-30T02:44:51.731Z,21.17
2018-04-30T02:47:21.232Z,23.27
2018-04-30T02:49:49.956Z,21.23
2018-04-30T02:52:18.493Z,22.00
2018-04-30T02:54:46.851Z,20.73
2018-04-30T02:57:15.437Z,22.20
2018-04-30T02:59:44.793Z,22.53
2018-04-30T03:02:14.309Z,22.03
2018-04-30T03:04:42.663Z,22.60
2018-04-30T03:07:11.091Z,20.87
2018-04-30T03:09:39.560Z,21.83
2018-04-30T03:12:07.903Z,21.70
2018-04-30T03:14:37.838Z,20.53
2018-04-30T03:17:07.173Z,20.87
2018-04-30T03:19:35.579Z,21.03
2018-04-30T03:22:04.051Z,22.80
2018-04-30T03:24:32.431Z,21.37
2018-04-30T03:27:00.793Z,21.40
2018-04-30T03:29:29.514Z,21.17
2018-04-30T03:31:57.996Z,21.93
2018-04-30T03:34:26.675Z,21.17
2018-04-30T03:36:55.033Z,21.47
2018-04-30T03:39:24.174Z,21.23
2018-04-30T03:41:54.051Z,22.43
2018-04-30T03:44:22.726Z,21.00
2018-04-30T03:46:51.540Z,21.37
2018-04-30T03:49:20.345Z,22.60
2018-04-30T03:51:48.700Z,20.23
2018-04-30T03:54:17.811Z,20.93
2018-04-30T03:56:46.436Z,50.63
2018-04-30T03:59:15.360Z,22.63
2018-04-30T04:01:55.473Z,60.73
2018-04-30T04:04:35.811Z,20.50
2018-04-30T04:07:04.269Z,21.30
2018-04-30T04:09:34.035Z,21.10
2018-04-30T04:12:02.850Z,19.93
2018-04-30T04:14:31.281Z,19.93
2018-04-30T04:16:59.643Z,18.10
2018-04-30T04:19:28.020Z,18.93
2018-04-30T04:21:56.387Z,20.30
2018-04-30T04:24:25.072Z,19.67
2018-04-30T04:26:53.499Z,20.60
2018-04-30T04:29:22.314Z,19.37
2018-04-30T04:31:51.338Z,21.67
2018-04-30T04:34:19.760Z,20.70
2018-04-30T04:36:48.660Z,20.10
2018-04-30T04:39:17.395Z,19.40
2018-04-30T04:41:46.605Z,19.73
2018-04-30T04:44:15.104Z,19.50
2018-04-30T04:46:43.516Z,20.33
2018-04-30T04:49:12.394Z,19.57
2018-04-30T04:51:41.393Z,19.93
2018-04-30T04:54:11.030Z,17.60
2018-04-30T04:56:39.464Z,18.77
2018-04-30T04:59:07.974Z,18.40
2018-04-30T05:01:37.376Z,18.13
2018-04-30T05:04:05.863Z,19.33
2018-04-30T05:06:34.233Z,18.30
2018-04-30T05:09:02.594Z,17.90
2018-04-30T05:11:31.711Z,18.07
2018-04-30T05:14:00.653Z,18.53
2018-04-30T05:16:29.113Z,17.77
2018-04-30T05:18:57.687Z,29.97
2018-04-30T05:21:26.062Z,20.20
2018-04-30T05:23:54.956Z,17.57
2018-04-30T05:26:23.323Z,17.67
2018-04-30T05:28:51.772Z,17.13
2018-04-30T05:31:20.131Z,15.30
2018-04-30T05:33:50.342Z,15.23
2018-04-30T05:36:18.681Z,15.40
2018-04-30T05:38:47.168Z,15.33
2018-04-30T05:41:16.174Z,15.83
2018-04-30T05:43:44.548Z,15.00
2018-04-30T05:46:13.156Z,14.20
2018-04-30T05:48:41.809Z,15.13
2018-04-30T05:51:10.500Z,13.63
2018-04-30T05:53:39.169Z,12.93
2018-04-30T05:56:07.615Z,13.37
2018-04-30T05:58:35.990Z,13.27
2018-04-30T06:01:04.596Z,11.73
2018-04-30T06:03:33.536Z,11.97
2018-04-30T06:06:01.898Z,10.00
2018-04-30T06:08:31.127Z,10.23
2018-04-30T06:10:59.927Z,9.77
2018-04-30T06:13:28.333Z,9.90
2018-04-30T06:15:56.912Z,12.03
2018-04-30T06:18:25.276Z,10.30
2018-04-30T06:20:53.644Z,9.43
2018-04-30T06:23:22.316Z,9.60
2018-04-30T06:25:51.521Z,8.90
2018-04-30T06:28:20.488Z,9.53
2018-04-30T06:30:49.304Z,9.30
2018-04-30T06:33:19.395Z,8.87
2018-04-30T06:35:48.306Z,8.50
2018-04-30T06:38:17.231Z,8.10
2018-04-30T06:40:45.591Z,6.50
2018-04-30T06:43:14.026Z,8.93
2018-04-30T06:45:42.827Z,8.73
2018-04-30T06:48:11.263Z,7.23
2018-04-30T06:50:40.226Z,6.77
2018-04-30T06:53:08.790Z,7.87
2018-04-30T06:55:37.335Z,7.13
2018-04-30T06:58:05.767Z,7.03
2018-04-30T07:00:34.203Z,6.77
2018-04-30T07:03:02.879Z,7.20
2018-04-30T07:05:31.302Z,7.20
2018-04-30T07:07:59.700Z,7.43
2018-04-30T07:10:28.054Z,7.20
2018-04-30T07:12:56.419Z,7.13
2018-04-30T07:15:24.947Z,7.23
2018-04-30T07:17:53.398Z,6.93
2018-04-30T07:20:22.043Z,7.20
2018-04-30T07:22:52.195Z,7.50
2018-04-30T07:25:21.473Z,6.80
2018-04-30T07:27:50.777Z,7.13
2018-04-30T07:30:19.456Z,7.53
2018-04-30T07:32:47.834Z,7.97
2018-04-30T07:35:16.678Z,7.20
2018-04-30T07:37:45.039Z,8.53
2018-04-30T07:40:13.952Z,7.93
2018-04-30T07:42:43.437Z,8.47
2018-04-30T07:45:12.028Z,7.03
2018-04-30T07:47:43.091Z,8.17
2018-04-30T07:50:12.829Z,8.33
2018-04-30T07:52:42.056Z,8.43
2018-04-30T07:55:11.634Z,7.90
2018-04-30T07:57:41.139Z,7.97
2018-04-30T08:00:09.664Z,8.43
2018-04-30T08:02:38.837Z,7.03
2018-04-30T08:05:07.989Z,8.33
2018-04-30T08:07:36.365Z,8.53
2018-04-30T08:10:04.954Z,7.87
2018-04-30T08:12:34.439Z,7.77
2018-04-30T08:15:04.428Z,7.67
2018-04-30T08:17:35.305Z,7.37
2018-04-30T08:20:03.663Z,7.97
2018-04-30T08:22:36.959Z,8.03
2018-04-30T08:25:05.919Z,7.93
2018-04-30T08:27:34.409Z,7.77
2018-04-30T08:30:03.285Z,7.57
2018-04-30T08:32:31.949Z,7.50
2018-04-30T08:35:00.398Z,7.63
2018-04-30T08:37:29.020Z,8.03
2018-04-30T08:39:57.459Z,7.03
2018-04-30T08:42:25.926Z,8.27
2018-04-30T08:44:56.104Z,7.37
2018-04-30T08:47:24.835Z,7.33
2018-04-30T08:49:53.194Z,7.67
2018-04-30T08:52:21.577Z,7.80
2018-04-30T08:54:50.219Z,12.60
2018-04-30T08:57:19.523Z,10.67
2018-04-30T08:59:48.387Z,7.10
2018-04-30T09:02:16.813Z,7.33
2018-04-30T09:04:45.165Z,6.93
2018-04-30T09:07:13.520Z,7.17
2018-04-30T09:09:42.109Z,8.17
2018-04-30T09:12:10.391Z,7.20
2018-04-30T09:14:40.002Z,8.33
2018-04-30T09:17:08.503Z,7.30
2018-04-30T09:19:37.215Z,7.63
2018-04-30T09:22:08.323Z,7.60
2018-04-30T09:24:37.652Z,7.23
2018-04-30T09:27:06.096Z,7.70
2018-04-30T09:29:35.457Z,6.77
2018-04-30T09:32:04.390Z,7.60
2018-04-30T09:34:32.765Z,7.13
2018-04-30T09:37:01.145Z,7.50
2018-04-30T09:39:29.519Z,7.13
2018-04-30T09:41:58.382Z,7.87
2018-04-30T09:44:26.742Z,7.07
2018-04-30T09:46:55.447Z,6.97
2018-04-30T09:49:24.069Z,7.17
2018-04-30T09:51:52.429Z,7.47
2018-04-30T09:54:20.779Z,7.73
2018-04-30T09:56:49.127Z,7.03
2018-04-30T09:59:17.508Z,7.50
2018-04-30T10:01:46.090Z,7.40
2018-04-30T10:04:14.577Z,7.40
2018-04-30T10:06:45.930Z,7.83
2018-04-30T10:09:14.399Z,8.17
2018-04-30T10:11:43.147Z,6.87
2018-04-30T10:14:13.583Z,7.23
2018-04-30T10:16:42.034Z,7.00
2018-04-30T10:21:44.092Z,6.97
2018-04-30T10:24:16.562Z,6.43
2018-04-30T10:26:44.997Z,6.23
2018-04-30T10:29:13.373Z,7.13
2018-04-30T10:31:41.851Z,7.93
2018-04-30T10:34:11.597Z,7.47
2018-04-30T10:36:40.076Z,7.17
2018-04-30T10:39:08.462Z,6.90
2018-04-30T10:41:37.143Z,7.70
2018-04-30T10:44:05.665Z,7.50
2018-04-30T10:46:34.068Z,7.10
2018-04-30T10:49:02.436Z,7.27
2018-04-30T10:51:31.371Z,7.07
2018-04-30T10:53:59.765Z,7.07
2018-04-30T10:56:28.136Z,6.77
2018-04-30T10:58:56.863Z,6.53
2018-04-30T11:01:25.251Z,6.93
2018-04-30T11:03:53.631Z,7.00
2018-04-30T11:06:23.675Z,6.17
2018-04-30T11:08:52.411Z,6.00
2018-04-30T11:11:20.793Z,6.07
2018-04-30T11:13:49.259Z,6.10
2018-04-30T11:16:17.962Z,6.37
2018-04-30T11:18:46.376Z,5.93
2018-04-30T11:21:14.776Z,6.63
2018-04-30T11:23:43.522Z,5.87
2018-04-30T11:26:11.990Z,6.50
2018-04-30T11:28:40.791Z,6.37
2018-04-30T11:31:09.155Z,6.30
2018-04-30T11:33:37.518Z,6.50
2018-04-30T11:36:06.927Z,6.10
2018-04-30T11:38:35.497Z,6.60
2018-04-30T11:41:04.829Z,6.13
2018-04-30T11:43:33.199Z,6.27
2018-04-30T11:46:01.568Z,6.40
2018-04-30T11:48:29.970Z,7.77
2018-04-30T11:50:58.340Z,6.53
2018-04-30T11:53:26.864Z,5.87
2018-04-30T11:55:55.580Z,6.10
2018-04-30T11:58:24.278Z,5.70
2018-04-30T12:00:52.753Z,6.40
2018-04-30T12:03:21.177Z,5.87
2018-04-30T12:05:49.977Z,6.00
2018-04-30T12:08:18.757Z,5.80
2018-04-30T12:10:47.563Z,5.63
2018-04-30T12:13:16.440Z,6.00
2018-04-30T12:15:44.800Z,6.20
2018-04-30T12:18:13.412Z,5.70
2018-04-30T12:20:41.890Z,5.90
2018-04-30T12:23:10.270Z,5.60
2018-04-30T12:25:38.672Z,5.47
2018-04-30T12:28:07.270Z,5.50
2018-04-30T12:30:36.057Z,5.83
2018-04-30T12:33:04.839Z,6.10
2018-04-30T12:35:33.352Z,5.00
2018-04-30T12:38:02.823Z,5.33
2018-04-30T12:40:31.197Z,7.50
2018-04-30T12:45:36.581Z,6.20
2018-04-30T12:48:06.218Z,5.37
2018-04-30T12:50:35.964Z,5.37
2018-04-30T12:53:05.290Z,5.33
2018-04-30T12:58:07.223Z,6.83
2018-04-30T13:00:35.643Z,5.90
2018-04-30T13:03:04.981Z,6.60
2018-04-30T13:05:34.597Z,5.90
2018-04-30T13:08:02.968Z,5.57
2018-04-30T13:10:31.923Z,5.10
2018-04-30T13:13:01.371Z,5.43
2018-04-30T13:15:34.554Z,6.77
2018-04-30T13:18:02.958Z,5.97
2018-04-30T13:20:33.899Z,5.87
2018-04-30T13:23:03.706Z,5.83
2018-04-30T13:27:11.780Z,6.80
2018-04-30T13:29:40.259Z,8.23
2018-04-30T13:32:08.668Z,6.33
2018-04-30T13:34:37.024Z,5.80
2018-04-30T13:37:05.389Z,6.30
2018-04-30T13:39:34.008Z,6.10
2018-04-30T13:42:02.360Z,5.90
2018-04-30T13:44:30.805Z,5.83
2018-04-30T13:46:59.167Z,6.17
2018-04-30T13:49:27.533Z,7.17
2018-04-30T13:51:55.892Z,6.30
2018-04-30T13:54:24.348Z,6.37
2018-04-30T13:56:53.655Z,5.63
2018-04-30T13:59:22.031Z,5.90
2018-04-30T14:01:50.586Z,5.57
2018-04-30T14:04:18.927Z,6.50
2018-04-30T14:06:47.643Z,6.00
2018-04-30T14:09:16.051Z,5.90
2018-04-30T14:11:44.419Z,6.10
2018-04-30T14:14:12.786Z,6.30
2018-04-30T14:16:41.139Z,6.30
2018-04-30T14:19:09.487Z,7.10
2018-04-30T14:21:38.196Z,7.07
2018-04-30T14:24:06.961Z,6.90
2018-04-30T14:26:36.042Z,6.77
2018-04-30T14:29:04.395Z,8.47
2018-04-30T14:31:32.753Z,8.93
2018-04-30T14:34:01.403Z,8.60
2018-04-30T14:36:30.117Z,7.00
